createdAt,value
2023-04-02T00:00:11.707Z,96909.91
2023-04-02T00:02:49.562Z,96920.84
2023-04-02T00:05:18.476Z,96911.41
2023-04-02T00:07:54.065Z,96910.25
2023-04-02T00:10:37.017Z,96918.56
2023-04-02T00:13:19.996Z,96932.47
2023-04-02T00:15:50.674Z,96927.84
2023-04-02T00:18:21.678Z,96931.88
2023-04-02T00:20:56.290Z,96929.09
2023-04-02T00:23:24.376Z,96940.97
2023-04-02T00:25:51.801Z,96947.16
2023-04-02T00:28:22.893Z,96953.09
2023-04-02T00:30:56.396Z,96960.13
2023-04-02T00:33:27.870Z,96964.84
2023-04-02T00:35:56.253Z,96971.22
2023-04-02T00:38:35.416Z,96976.84
2023-04-02T00:41:05.522Z,96972.38
2023-04-02T00:43:37.125Z,96983.84
2023-04-02T00:46:14.361Z,96967.25
2023-04-02T00:48:50.652Z,96988.16
2023-04-02T00:51:25.205Z,97002.91
2023-04-02T00:53:56.763Z,96999.09
2023-04-02T00:56:46.460Z,97005.97
2023-04-02T00:59:35.863Z,97000.94
2023-04-02T01:02:17.540Z,97035.03
2023-04-02T01:05:02.752Z,97004.72
2023-04-02T01:07:47.562Z,97027.53
2023-04-02T01:10:26.844Z,97030.84
2023-04-02T01:13:20.270Z,97028.38
2023-04-02T01:15:58.897Z,97024.53
2023-04-02T01:18:41.588Z,97030.19
2023-04-02T01:21:21.950Z,97036.56
2023-04-02T01:24:07.566Z,97031.06
2023-04-02T01:26:54.626Z,97030.38
2023-04-02T01:29:25.835Z,97038.63
2023-04-02T01:31:57.588Z,97047.44
2023-04-02T01:34:28.542Z,97041.75
2023-04-02T01:37:10.443Z,97050.34
2023-04-02T01:39:46.286Z,97056.03
2023-04-02T01:42:31.632Z,97066.25
2023-04-02T01:45:09.062Z,97084.81
2023-04-02T01:47:38.730Z,97082.97
2023-04-02T01:50:25.017Z,97091.94
2023-04-02T01:52:56.801Z,97090.75
2023-04-02T01:55:42.131Z,97090.75
2023-04-02T01:58:11.994Z,97091.34
2023-04-02T02:01:08.545Z,97111.69
2023-04-02T02:03:41.236Z,97107.41
2023-04-02T02:06:14.205Z,97104.53
2023-04-02T02:08:46.905Z,97117.16
2023-04-02T02:11:21.785Z,97121.22
2023-04-02T02:14:01.018Z,97118.03
2023-04-02T02:16:32.010Z,97128.16
2023-04-02T02:19:03.236Z,97129.41
2023-04-02T02:21:46.738Z,97132.44
2023-04-02T02:24:28.848Z,97139.75
2023-04-02T02:27:04.888Z,97137.75
2023-04-02T02:29:37.766Z,97143.25
2023-04-02T02:32:10.365Z,97138.41
2023-04-02T02:34:43.581Z,97153.84
2023-04-02T02:37:19.216Z,97157.88
2023-04-02T02:39:54.045Z,97154.06
2023-04-02T02:42:39.130Z,97169.88
2023-04-02T02:45:13.188Z,97171.31
2023-04-02T02:47:44.522Z,97179.81
2023-04-02T02:50:26.963Z,97188.75
2023-04-02T02:52:59.002Z,97194.00
2023-04-02T02:55:34.589Z,97192.81
2023-04-02T02:58:28.988Z,97192.00
2023-04-02T03:01:13.363Z,97194.81
2023-04-02T03:03:47.564Z,97198.09
2023-04-02T03:06:20.911Z,97206.63
2023-04-02T03:09:18.757Z,97217.97
2023-04-02T03:12:34.710Z,97225.69
2023-04-02T03:15:14.534Z,97217.16
2023-04-02T03:18:05.686Z,97228.72
2023-04-02T03:20:43.876Z,97230.53
2023-04-02T03:23:29.780Z,97246.38
2023-04-02T03:26:15.934Z,97242.47
2023-04-02T03:28:51.003Z,97263.41
2023-04-02T03:31:41.939Z,97261.75
2023-04-02T03:34:23.852Z,97261.72
2023-04-02T03:36:58.129Z,97262.13
2023-04-02T03:39:50.615Z,97269.63
2023-04-02T03:42:27.629Z,97275.13
2023-04-02T03:45:10.147Z,97283.47
2023-04-02T03:47:47.477Z,97290.94
2023-04-02T03:50:21.769Z,97306.34
2023-04-02T03:52:50.471Z,97306.66
2023-04-02T03:55:26.568Z,97307.09
2023-04-02T03:58:19.150Z,97329.19
2023-04-02T04:01:18.959Z,97324.13
2023-04-02T04:03:52.243Z,97330.41
2023-04-02T04:06:23.707Z,97336.09
2023-04-02T04:08:55.776Z,97338.94
2023-04-02T04:11:30.783Z,97337.72
2023-04-02T04:14:16.459Z,97345.97
2023-04-02T04:17:15.661Z,97367.34
2023-04-02T04:20:22.205Z,97368.13
2023-04-02T04:22:56.114Z,97371.69
2023-04-02T04:25:30.097Z,97374.72
2023-04-02T04:28:26.756Z,97388.66
2023-04-02T04:31:04.297Z,97379.38
2023-04-02T04:33:43.735Z,97379.41
2023-04-02T04:36:28.877Z,97385.91
2023-04-02T04:39:18.468Z,97388.38
2023-04-02T04:41:51.292Z,97390.63
2023-04-02T04:44:25.100Z,97402.28
2023-04-02T04:47:00.585Z,97403.13
2023-04-02T04:49:39.077Z,97418.81
2023-04-02T04:52:26.906Z,97420.47
2023-04-02T04:54:54.873Z,97435.75
2023-04-02T04:57:36.348Z,97439.44
2023-04-02T05:00:18.859Z,97444.97
2023-04-02T05:03:09.859Z,97465.59
2023-04-02T05:05:41.165Z,97462.69
2023-04-02T05:08:17.076Z,97458.69
2023-04-02T05:10:52.779Z,97467.97
2023-04-02T05:13:39.045Z,97478.78
2023-04-02T05:16:09.685Z,97472.22
2023-04-02T05:18:43.443Z,97483.31
2023-04-02T05:21:37.917Z,97487.81
2023-04-02T05:24:43.964Z,97483.38
2023-04-02T05:27:23.331Z,97498.88
2023-04-02T05:30:10.005Z,97521.75
2023-04-02T05:32:43.624Z,97506.72
2023-04-02T05:35:21.326Z,97517.81
2023-04-02T05:37:49.963Z,97522.50
2023-04-02T05:40:27.700Z,97530.75
2023-04-02T05:42:57.368Z,97538.84
2023-04-02T05:45:34.970Z,97538.22
2023-04-02T05:48:18.833Z,97541.84
2023-04-02T05:50:53.811Z,97548.94
2023-04-02T05:53:47.532Z,97565.88
2023-04-02T05:56:23.880Z,97565.22
2023-04-02T05:59:08.539Z,97562.59
2023-04-02T06:01:56.217Z,97570.56
2023-04-02T06:04:50.758Z,97585.53
2023-04-02T06:07:21.908Z,97585.81
2023-04-02T06:10:03.506Z,97577.84
2023-04-02T06:12:47.264Z,97582.59
2023-04-02T06:15:18.728Z,97597.00
2023-04-02T06:18:19.674Z,97597.22
2023-04-02T06:20:48.946Z,97607.25
2023-04-02T06:23:20.183Z,97613.50
2023-04-02T06:25:57.667Z,97605.44
2023-04-02T06:28:31.425Z,97612.69
2023-04-02T06:31:06.141Z,97632.19
2023-04-02T06:33:37.258Z,97626.72
2023-04-02T06:36:06.984Z,97640.38
2023-04-02T06:38:38.158Z,97648.13
2023-04-02T06:41:19.650Z,97651.59
2023-04-02T06:44:16.080Z,97686.84
2023-04-02T06:47:01.837Z,97656.94
2023-04-02T06:49:33.462Z,97676.22
2023-04-02T06:52:08.992Z,97665.06
2023-04-02T06:54:36.762Z,97681.06
2023-04-02T06:57:12.437Z,97692.97
2023-04-02T06:59:43.104Z,97686.72
2023-04-02T07:02:40.949Z,97688.38
2023-04-02T07:05:11.918Z,97705.56
2023-04-02T07:07:45.012Z,97702.50
2023-04-02T07:10:13.489Z,97713.63
2023-04-02T07:12:41.198Z,97702.63
2023-04-02T07:15:15.085Z,97712.94
2023-04-02T07:17:43.993Z,97706.88
2023-04-02T07:20:33.525Z,97709.97
2023-04-02T07:23:06.489Z,97723.50
2023-04-02T07:25:34.193Z,97740.22
2023-04-02T07:28:02.072Z,97739.22
2023-04-02T07:30:29.560Z,97730.97
2023-04-02T07:32:57.148Z,97735.25
2023-04-02T07:35:24.916Z,97738.00
2023-04-02T07:37:53.073Z,97762.16
2023-04-02T07:40:23.145Z,97758.50
2023-04-02T07:42:50.886Z,97763.63
2023-04-02T07:45:18.457Z,97759.63
2023-04-02T07:47:46.524Z,97763.72
2023-04-02T07:50:14.336Z,97775.19
2023-04-02T07:52:43.165Z,97766.19
2023-04-02T07:55:12.905Z,97773.91
2023-04-02T07:57:48.484Z,97780.13
2023-04-02T08:00:17.158Z,97788.63
2023-04-02T08:02:45.164Z,97790.47
2023-04-02T08:05:12.933Z,97796.84
2023-04-02T08:07:41.716Z,97811.63
2023-04-02T08:10:11.531Z,97802.66
2023-04-02T08:12:39.136Z,97813.28
2023-04-02T08:15:07.490Z,97809.31
2023-04-02T08:17:35.431Z,97821.06
2023-04-02T08:20:04.209Z,97826.00
2023-04-02T08:22:31.735Z,97813.56
2023-04-02T08:24:59.357Z,97824.50
2023-04-02T08:27:27.418Z,97837.63
2023-04-02T08:29:54.824Z,97825.44
2023-04-02T08:32:23.186Z,97851.16
2023-04-02T08:34:51.402Z,97837.91
2023-04-02T08:37:18.893Z,97843.50
2023-04-02T08:39:46.871Z,97856.94
2023-04-02T08:42:29.433Z,97857.94
2023-04-02T08:45:10.816Z,97850.56
2023-04-02T08:47:51.558Z,97868.84
2023-04-02T08:50:33.010Z,97872.97
2023-04-02T08:53:04.742Z,97872.00
2023-04-02T08:55:43.037Z,97882.81
2023-04-02T08:58:43.163Z,97882.69
2023-04-02T09:01:35.221Z,97877.66
2023-04-02T09:04:06.205Z,97891.00
2023-04-02T09:06:34.790Z,97883.13
2023-04-02T09:09:02.317Z,97891.66
2023-04-02T09:11:41.948Z,97902.19
2023-04-02T09:14:20.020Z,97902.72
2023-04-02T09:16:53.067Z,97901.59
2023-04-02T09:19:25.539Z,97917.66
2023-04-02T09:22:13.997Z,97901.53
2023-04-02T09:24:41.632Z,97909.63
2023-04-02T09:27:23.458Z,97913.88
2023-04-02T09:30:01.021Z,97919.47
2023-04-02T09:32:48.077Z,97922.63
2023-04-02T09:35:27.400Z,97930.22
2023-04-02T09:38:18.726Z,97926.53
2023-04-02T09:40:58.870Z,97937.19
2023-04-02T09:43:29.176Z,97944.28
2023-04-02T09:46:01.356Z,97949.84
2023-04-02T09:48:39.419Z,97945.91
2023-04-02T09:51:15.058Z,97947.84
2023-04-02T09:53:51.921Z,97953.09
2023-04-02T09:56:25.977Z,97947.13
2023-04-02T09:59:17.153Z,97959.69
2023-04-02T10:01:53.614Z,97969.81
2023-04-02T10:04:49.619Z,97975.50
2023-04-02T10:07:35.698Z,97986.38
2023-04-02T10:10:31.106Z,97992.31
2023-04-02T10:13:20.147Z,97992.06
2023-04-02T10:15:55.957Z,97994.03
2023-04-02T10:18:50.956Z,98009.03
2023-04-02T10:21:23.788Z,98013.63
2023-04-02T10:23:51.498Z,98004.38
2023-04-02T10:26:41.583Z,98008.84
2023-04-02T10:29:53.060Z,98016.56
2023-04-02T10:32:31.571Z,98017.53
2023-04-02T10:35:04.076Z,98021.84
2023-04-02T10:37:47.368Z,98026.56
2023-04-02T10:40:33.426Z,98033.34
2023-04-02T10:43:40.819Z,98043.53
2023-04-02T10:46:33.543Z,98024.75
2023-04-02T10:49:16.869Z,98042.53
2023-04-02T10:51:48.890Z,98049.06
2023-04-02T10:54:40.084Z,98060.06
2023-04-02T10:57:16.793Z,98051.03
2023-04-02T10:59:49.683Z,98060.94
2023-04-02T11:02:32.479Z,98071.59
2023-04-02T11:05:07.450Z,98071.06
2023-04-02T11:07:45.830Z,98078.97
2023-04-02T11:10:19.811Z,98076.00
2023-04-02T11:12:55.116Z,98082.72
2023-04-02T11:15:23.026Z,98083.81
2023-04-02T11:17:50.818Z,98088.81
2023-04-02T11:20:46.227Z,98088.91
2023-04-02T11:23:17.874Z,98094.66
2023-04-02T11:25:46.715Z,98086.94
2023-04-02T11:28:32.069Z,98108.31
2023-04-02T11:31:00.386Z,98096.72
2023-04-02T11:33:46.069Z,98098.91
2023-04-02T11:36:52.992Z,98109.47
2023-04-02T11:39:46.677Z,98114.56
2023-04-02T11:42:19.951Z,98113.75
2023-04-02T11:44:47.488Z,98112.75
2023-04-02T11:47:34.356Z,98117.81
2023-04-02T11:50:04.506Z,98113.56
2023-04-02T11:52:49.888Z,98116.66
2023-04-02T11:55:35.231Z,98120.91
2023-04-02T11:58:40.439Z,98125.97
2023-04-02T12:01:30.244Z,98129.31
2023-04-02T12:04:13.187Z,98128.13
2023-04-02T12:06:47.307Z,98123.56
2023-04-02T12:09:23.998Z,98131.31
2023-04-02T12:11:54.960Z,98132.94
2023-04-02T12:14:31.396Z,98144.13
2023-04-02T12:16:59.854Z,98143.84
2023-04-02T12:19:27.910Z,98145.84
2023-04-02T12:21:56.599Z,98141.66
2023-04-02T12:24:26.962Z,98148.63
2023-04-02T12:27:22.926Z,98155.44
2023-04-02T12:29:51.777Z,98164.84
2023-04-02T12:32:22.305Z,98159.88
2023-04-02T12:34:52.125Z,98165.50
2023-04-02T12:37:28.033Z,98161.66
2023-04-02T12:39:59.328Z,98170.84
2023-04-02T12:42:34.022Z,98168.53
2023-04-02T12:45:03.287Z,98176.38
2023-04-02T12:47:31.424Z,98180.53
2023-04-02T12:50:01.906Z,98171.31
2023-04-02T12:52:30.658Z,98178.84
2023-04-02T12:55:00.364Z,98187.91
2023-04-02T12:57:28.818Z,98182.88
2023-04-02T13:00:00.024Z,98187.78
2023-04-02T13:02:30.359Z,98186.63
2023-04-02T13:05:03.436Z,98192.84
2023-04-02T13:07:33.743Z,98188.47
2023-04-02T13:10:23.165Z,98189.38
2023-04-02T13:12:58.957Z,98199.91
2023-04-02T13:15:32.169Z,98200.16
2023-04-02T13:18:22.895Z,98199.56
2023-04-02T13:20:57.444Z,98208.16
2023-04-02T13:23:31.046Z,98207.81
2023-04-02T13:26:14.899Z,98207.84
2023-04-02T13:28:42.601Z,98209.66
2023-04-02T13:31:17.020Z,98210.53
2023-04-02T13:33:44.607Z,98214.47
2023-04-02T13:36:15.802Z,98211.72
2023-04-02T13:38:43.377Z,98230.19
2023-04-02T13:42:00.671Z,98218.44
2023-04-02T13:44:33.981Z,98226.50
2023-04-02T13:47:02.046Z,98226.97
2023-04-02T13:49:29.834Z,98238.56
2023-04-02T13:52:01.008Z,98235.63
2023-04-02T13:54:51.609Z,98237.47
2023-04-02T13:57:19.438Z,98237.13
2023-04-02T13:59:46.978Z,98245.72
2023-04-02T14:02:19.062Z,98251.94
2023-04-02T14:05:06.750Z,98251.03
2023-04-02T14:07:42.183Z,98251.19
2023-04-02T14:10:37.729Z,98253.50
2023-04-02T14:13:39.204Z,98257.28
2023-04-02T14:16:31.439Z,98261.53
2023-04-02T14:19:22.367Z,98269.44
2023-04-02T14:22:12.159Z,98266.34
2023-04-02T14:24:58.666Z,98271.28
2023-04-02T14:27:39.766Z,98272.69
2023-04-02T14:30:17.541Z,98281.41
2023-04-02T14:33:07.006Z,98271.06
2023-04-02T14:35:45.129Z,98274.16
2023-04-02T14:38:50.732Z,98275.78
2023-04-02T14:41:29.100Z,98286.00
2023-04-02T14:44:05.552Z,98283.97
2023-04-02T14:46:37.480Z,98290.19
2023-04-02T14:49:29.770Z,98295.53
2023-04-02T14:52:04.670Z,98290.41
2023-04-02T14:54:52.139Z,98293.03
2023-04-02T14:57:24.701Z,98297.81
2023-04-02T15:00:24.277Z,98299.31
2023-04-02T15:03:03.778Z,98308.84
2023-04-02T15:05:39.924Z,98307.00
2023-04-02T15:08:16.165Z,98308.69
2023-04-02T15:10:46.464Z,98307.19
2023-04-02T15:13:21.404Z,98310.78
2023-04-02T15:15:59.012Z,98309.66
2023-04-02T15:18:26.985Z,98305.38
2023-04-02T15:20:57.426Z,98314.09
2023-04-02T15:23:43.179Z,98322.53
2023-04-02T15:26:29.776Z,98317.91
2023-04-02T15:29:04.177Z,98322.34
2023-04-02T15:31:34.336Z,98322.84
2023-04-02T15:34:22.838Z,98326.78
2023-04-02T15:37:29.095Z,98334.69
2023-04-02T15:40:02.860Z,98336.31
2023-04-02T15:42:39.624Z,98334.03
2023-04-02T15:45:17.407Z,98339.44
2023-04-02T15:47:59.821Z,98345.22
2023-04-02T15:51:06.154Z,98348.00
2023-04-02T15:53:53.475Z,98355.09
2023-04-02T15:56:38.739Z,98354.44
2023-04-02T15:59:18.070Z,98356.06
2023-04-02T16:01:59.576Z,98359.22
2023-04-02T16:04:51.319Z,98358.72
2023-04-02T16:07:19.239Z,98363.66
2023-04-02T16:10:30.221Z,98369.25
2023-04-02T16:13:27.056Z,98367.78
2023-04-02T16:16:05.766Z,98377.97
2023-04-02T16:18:59.267Z,98373.00
2023-04-02T16:21:34.440Z,98373.88
2023-04-02T16:24:02.029Z,98370.84
2023-04-02T16:26:32.570Z,98369.84
2023-04-02T16:29:19.280Z,98378.94
2023-04-02T16:32:01.681Z,98384.88
2023-04-02T16:35:05.036Z,98391.31
2023-04-02T16:38:01.731Z,98401.50
2023-04-02T16:41:08.408Z,98393.59
2023-04-02T16:44:18.126Z,98402.81
2023-04-02T16:47:12.691Z,98407.25
2023-04-02T16:49:50.059Z,98407.25
2023-04-02T16:52:39.200Z,98416.16
2023-04-02T16:55:12.780Z,98416.97
2023-04-02T16:58:08.123Z,98411.53
2023-04-02T17:00:57.763Z,98412.69
2023-04-02T17:03:37.388Z,98417.66
2023-04-02T17:06:06.435Z,98422.06
2023-04-02T17:08:44.404Z,98423.56
2023-04-02T17:11:34.908Z,98427.00
2023-04-02T17:14:15.540Z,98428.50
2023-04-02T17:16:46.335Z,98433.47
2023-04-02T17:19:16.682Z,98434.75
2023-04-02T17:21:48.723Z,98427.00
2023-04-02T17:24:26.173Z,98435.75
2023-04-02T17:27:28.227Z,98444.63
2023-04-02T17:30:04.411Z,98449.25
2023-04-02T17:32:34.000Z,98444.63
2023-04-02T17:35:20.778Z,98452.56
2023-04-02T17:38:08.788Z,98455.19
2023-04-02T17:40:48.833Z,98449.59
2023-04-02T17:43:36.209Z,98464.41
2023-04-02T17:46:22.018Z,98460.81
2023-04-02T17:48:59.361Z,98461.28
2023-04-02T17:51:39.592Z,98465.53
2023-04-02T17:54:27.782Z,98468.38
2023-04-02T17:57:00.448Z,98467.03
2023-04-02T17:59:43.019Z,98477.41
2023-04-02T18:02:42.571Z,98474.94
2023-04-02T18:05:51.587Z,98477.75
2023-04-02T18:08:30.965Z,98469.31
2023-04-02T18:11:15.577Z,98471.63
2023-04-02T18:13:49.696Z,98477.56
2023-04-02T18:17:01.735Z,98483.84
2023-04-02T18:19:43.978Z,98493.38
2023-04-02T18:22:39.482Z,98488.78
2023-04-02T18:25:40.069Z,98497.16
2023-04-02T18:28:16.465Z,98495.03
2023-04-02T18:31:11.744Z,98502.44
2023-04-02T18:34:13.463Z,98501.59
2023-04-02T18:37:15.354Z,98508.53
2023-04-02T18:40:29.520Z,98521.56
2023-04-02T18:43:41.733Z,98517.13
2023-04-02T18:46:22.925Z,98523.38
2023-04-02T18:49:37.011Z,98522.84
2023-04-02T18:52:14.405Z,98527.47
2023-04-02T18:55:15.975Z,98530.13
2023-04-02T18:57:46.576Z,98537.22
2023-04-02T19:00:36.781Z,98539.00
2023-04-02T19:03:20.820Z,98546.25
2023-04-02T19:05:56.793Z,98549.53
2023-04-02T19:08:36.348Z,98557.59
2023-04-02T19:11:15.758Z,98556.66
2023-04-02T19:13:45.114Z,98560.25
2023-04-02T19:16:50.235Z,98564.03
2023-04-02T19:19:26.991Z,98567.66
2023-04-02T19:22:12.906Z,98577.88
2023-04-02T19:24:48.256Z,98576.22
2023-04-02T19:27:42.408Z,98584.78
2023-04-02T19:30:10.165Z,98575.56
2023-04-02T19:33:07.237Z,98577.19
2023-04-02T19:35:50.012Z,98574.25
2023-04-02T19:38:50.161Z,98584.13
2023-04-02T19:41:41.498Z,98575.56
2023-04-02T19:44:13.555Z,98579.06
2023-04-02T19:46:41.699Z,98592.56
2023-04-02T19:49:16.896Z,98600.13
2023-04-02T19:51:44.440Z,98594.81
2023-04-02T19:54:12.913Z,98596.47
2023-04-02T19:56:42.478Z,98599.28
2023-04-02T19:59:17.985Z,98589.06
2023-04-02T20:01:46.931Z,98596.97
2023-04-02T20:04:15.250Z,98587.28
2023-04-02T20:06:43.124Z,98598.13
2023-04-02T20:09:11.057Z,98593.34
2023-04-02T20:11:39.108Z,98598.81
2023-04-02T20:14:06.933Z,98593.69
2023-04-02T20:16:36.860Z,98594.84
2023-04-02T20:19:04.405Z,98599.47
2023-04-02T20:21:38.318Z,98600.47
2023-04-02T20:24:07.731Z,98606.06
2023-04-02T20:26:36.290Z,98605.88
2023-04-02T20:29:04.064Z,98611.16
2023-04-02T20:31:31.768Z,98613.13
2023-04-02T20:34:00.072Z,98612.31
2023-04-02T20:36:27.721Z,98611.13
2023-04-02T20:38:55.909Z,98612.13
2023-04-02T20:41:23.451Z,98615.25
2023-04-02T20:43:50.996Z,98621.50
2023-04-02T20:46:18.749Z,98618.41
2023-04-02T20:48:47.052Z,98632.06
2023-04-02T20:51:15.922Z,98628.94
2023-04-02T20:53:43.541Z,98629.56
2023-04-02T20:56:16.359Z,98627.78
2023-04-02T20:58:44.745Z,98629.41
2023-04-02T21:01:13.432Z,98637.31
2023-04-02T21:03:41.114Z,98634.69
2023-04-02T21:06:17.205Z,98640.25
2023-04-02T21:08:44.696Z,98624.63
2023-04-02T21:11:12.722Z,98636.13
2023-04-02T21:13:44.214Z,98636.00
2023-04-02T21:16:19.250Z,98640.91
2023-04-02T21:18:48.487Z,98643.88
2023-04-02T21:21:16.934Z,98648.13
2023-04-02T21:23:45.369Z,98646.00
2023-04-02T21:26:15.892Z,98649.81
2023-04-02T21:28:44.578Z,98653.75
2023-04-02T21:31:18.168Z,98651.78
2023-04-02T21:33:48.318Z,98652.59
2023-04-02T21:36:24.457Z,98653.59
2023-04-02T21:39:06.187Z,98665.75
2023-04-02T21:41:42.082Z,98660.16
2023-04-02T21:44:13.698Z,98656.56
2023-04-02T21:46:44.307Z,98663.13
2023-04-02T21:49:14.416Z,98666.03
2023-04-02T21:51:43.786Z,98663.22
2023-04-02T21:54:11.566Z,98660.75
2023-04-02T21:56:42.140Z,98667.03
2023-04-02T21:59:11.677Z,98668.63
2023-04-02T22:01:45.224Z,98669.97
2023-04-02T22:04:22.232Z,98664.75
2023-04-02T22:06:51.145Z,98677.19
2023-04-02T22:09:22.768Z,98671.34
2023-04-02T22:11:54.640Z,98674.31
2023-04-02T22:14:23.341Z,98676.41
2023-04-02T22:16:52.057Z,98684.66
2023-04-02T22:19:20.041Z,98683.66
2023-04-02T22:21:47.598Z,98684.09
2023-04-02T22:24:18.853Z,98679.06
2023-04-02T22:26:47.038Z,98684.09
2023-04-02T22:29:15.836Z,98686.41
2023-04-02T22:31:43.785Z,98695.28
2023-04-02T22:34:11.268Z,98687.03
2023-04-02T22:36:38.753Z,98692.81
2023-04-02T22:39:10.404Z,98692.06
2023-04-02T22:41:38.505Z,98693.44
2023-04-02T22:44:06.117Z,98700.28
2023-04-02T22:46:34.730Z,98694.38
2023-04-02T22:49:03.007Z,98707.84
2023-04-02T22:51:31.143Z,98708.50
2023-04-02T22:53:58.648Z,98709.13
2023-04-02T22:56:31.904Z,98706.91
2023-04-02T22:58:59.798Z,98717.06
2023-04-02T23:01:30.990Z,98712.28
2023-04-02T23:03:58.423Z,98715.31
2023-04-02T23:06:37.867Z,98723.66
2023-04-02T23:09:05.692Z,98719.03
2023-04-02T23:11:33.625Z,98722.91
2023-04-02T23:14:01.187Z,98725.44
2023-04-02T23:16:29.466Z,98727.00
2023-04-02T23:18:57.495Z,98726.53
2023-04-02T23:21:26.327Z,98727.81
2023-04-02T23:23:54.407Z,98727.19
2023-04-02T23:26:29.543Z,98725.50
2023-04-02T23:28:58.680Z,98729.31
2023-04-02T23:31:26.716Z,98727.13
2023-04-02T23:33:54.354Z,98723.00
2023-04-02T23:36:33.676Z,98731.44
2023-04-02T23:39:04.524Z,98732.59
2023-04-02T23:41:32.141Z,98732.59
2023-04-02T23:43:59.783Z,98734.94
2023-04-02T23:46:28.117Z,98733.72
2023-04-02T23:48:56.253Z,98735.00
2023-04-02T23:51:24.752Z,98739.59
2023-04-02T23:53:53.638Z,98736.28
2023-04-02T23:56:22.165Z,98736.44
2023-04-02T23:58:50.633Z,98736.88
